sensor_id;sensor_type;location;lat;lon;timestamp;P1;durP1;ratioP1;P2;durP2;ratioP2
66581;SDS011;53438;48.898;2.308;2023-05-24T03:00:07;12.20;;;3.03;;
66581;SDS011;53438;48.898;2.308;2023-05-24T03:02:35;8.20;;;2.67;;
66581;SDS011;53438;48.898;2.308;2023-05-24T03:05:02;11.32;;;3.05;;
66581;SDS011;53438;48.898;2.308;2023-05-24T03:07:28;13.98;;;2.90;;
66581;SDS011;53438;48.898;2.308;2023-05-24T03:09:53;12.13;;;2.87;;
66581;SDS011;53438;48.898;2.308;2023-05-24T03:12:18;14.73;;;2.60;;
66581;SDS011;53438;48.898;2.308;2023-05-24T03:14:44;15.53;;;3.20;;
66581;SDS011;53438;48.898;2.308;2023-05-24T03:17:09;7.80;;;3.23;;
66581;SDS011;53438;48.898;2.308;2023-05-24T03:19:35;15.38;;;2.80;;
66581;SDS011;53438;48.898;2.308;2023-05-24T03:22:01;13.93;;;2.77;;
66581;SDS011;53438;48.898;2.308;2023-05-24T03:24:26;10.02;;;2.75;;
66581;SDS011;53438;48.898;2.308;2023-05-24T03:26:52;14.13;;;3.23;;
66581;SDS011;53438;48.898;2.308;2023-05-24T03:29:17;13.73;;;3.10;;
66581;SDS011;53438;48.898;2.308;2023-05-24T03:31:42;11.83;;;2.77;;
66581;SDS011;53438;48.898;2.308;2023-05-24T03:34:08;16.10;;;2.83;;
66581;SDS011;53438;48.898;2.308;2023-05-24T03:36:33;11.57;;;3.07;;
66581;SDS011;53438;48.898;2.308;2023-05-24T03:38:58;9.77;;;3.10;;
66581;SDS011;53438;48.898;2.308;2023-05-24T03:41:24;12.75;;;2.90;;
66581;SDS011;53438;48.898;2.308;2023-05-24T03:43:50;12.83;;;3.03;;
66581;SDS011;53438;48.898;2.308;2023-05-24T03:46:16;11.55;;;3.65;;
66581;SDS011;53438;48.898;2.308;2023-05-24T03:48:41;10.87;;;3.50;;
66581;SDS011;53438;48.898;2.308;2023-05-24T03:51:06;10.77;;;2.90;;
66581;SDS011;53438;48.898;2.308;2023-05-24T03:53:33;13.18;;;3.53;;
66581;SDS011;53438;48.898;2.308;2023-05-24T03:55:58;12.57;;;3.15;;
66581;SDS011;53438;48.898;2.308;2023-05-24T03:58:24;11.10;;;2.90;;
66581;SDS011;53438;48.898;2.308;2023-05-24T04:00:49;10.63;;;3.07;;
66581;SDS011;53438;48.898;2.308;2023-05-24T04:03:14;9.23;;;2.97;;
66581;SDS011;53438;48.898;2.308;2023-05-24T04:05:40;17.53;;;3.00;;
66581;SDS011;53438;48.898;2.308;2023-05-24T04:08:05;13.80;;;3.30;;
66581;SDS011;53438;48.898;2.308;2023-05-24T04:10:31;12.63;;;2.42;;
66581;SDS011;53438;48.898;2.308;2023-05-24T04:12:56;11.03;;;2.87;;
66581;SDS011;53438;48.898;2.308;2023-05-24T04:15:22;13.27;;;3.08;;
66581;SDS011;53438;48.898;2.308;2023-05-24T04:17:48;10.93;;;2.90;;
66581;SDS011;53438;48.898;2.308;2023-05-24T04:20:18;15.07;;;2.95;;
66581;SDS011;53438;48.898;2.308;2023-05-24T04:22:44;10.50;;;2.30;;
66581;SDS011;53438;48.898;2.308;2023-05-24T04:25:09;14.43;;;3.00;;
66581;SDS011;53438;48.898;2.308;2023-05-24T04:27:35;16.50;;;3.22;;
66581;SDS011;53438;48.898;2.308;2023-05-24T04:30:00;16.57;;;3.40;;
66581;SDS011;53438;48.898;2.308;2023-05-24T04:32:26;10.53;;;2.73;;
66581;SDS011;53438;48.898;2.308;2023-05-24T04:34:54;10.52;;;2.80;;
66581;SDS011;53438;48.898;2.308;2023-05-24T04:37:19;11.30;;;3.00;;
66581;SDS011;53438;48.898;2.308;2023-05-24T04:39:45;10.75;;;2.88;;
66581;SDS011;53438;48.898;2.308;2023-05-24T04:42:11;9.23;;;2.70;;
66581;SDS011;53438;48.898;2.308;2023-05-24T04:44:37;15.43;;;2.58;;
66581;SDS011;53438;48.898;2.308;2023-05-24T04:47:04;11.80;;;3.07;;
66581;SDS011;53438;48.898;2.308;2023-05-24T04:49:30;12.60;;;3.08;;
66581;SDS011;53438;48.898;2.308;2023-05-24T04:51:55;9.70;;;3.00;;
66581;SDS011;53438;48.898;2.308;2023-05-24T04:54:21;14.60;;;3.67;;
66581;SDS011;53438;48.898;2.308;2023-05-24T04:56:47;12.40;;;3.57;;
66581;SDS011;53438;48.898;2.308;2023-05-24T04:59:12;13.40;;;2.78;;
66581;SDS011;53438;48.898;2.308;2023-05-24T05:01:38;11.17;;;2.63;;
66581;SDS011;53438;48.898;2.308;2023-05-24T05:04:03;10.97;;;3.13;;
66581;SDS011;53438;48.898;2.308;2023-05-24T05:06:29;15.65;;;4.00;;
66581;SDS011;53438;48.898;2.308;2023-05-24T05:08:55;10.20;;;2.60;;
66581;SDS011;53438;48.898;2.308;2023-05-24T05:11:21;14.47;;;3.40;;
66581;SDS011;53438;48.898;2.308;2023-05-24T05:13:46;10.63;;;2.57;;
66581;SDS011;53438;48.898;2.308;2023-05-24T05:16:12;17.58;;;3.50;;
66581;SDS011;53438;48.898;2.308;2023-05-24T05:18:37;13.57;;;3.05;;
66581;SDS011;53438;48.898;2.308;2023-05-24T05:21:03;12.80;;;3.20;;
66581;SDS011;53438;48.898;2.308;2023-05-24T05:23:28;12.23;;;3.30;;
66581;SDS011;53438;48.898;2.308;2023-05-24T05:25:54;11.55;;;3.38;;
66581;SDS011;53438;48.898;2.308;2023-05-24T05:28:20;16.20;;;2.85;;
66581;SDS011;53438;48.898;2.308;2023-05-24T05:30:45;14.00;;;3.13;;
66581;SDS011;53438;48.898;2.308;2023-05-24T05:33:11;12.77;;;2.80;;
66581;SDS011;53438;48.898;2.308;2023-05-24T05:35:36;13.50;;;3.50;;
66581;SDS011;53438;48.898;2.308;2023-05-24T05:38:01;12.27;;;3.10;;
66581;SDS011;53438;48.898;2.308;2023-05-24T05:40:27;14.67;;;4.67;;
66581;SDS011;53438;48.898;2.308;2023-05-24T05:42:52;13.60;;;3.23;;
66581;SDS011;53438;48.898;2.308;2023-05-24T05:45:17;13.10;;;3.37;;
66581;SDS011;53438;48.898;2.308;2023-05-24T05:47:43;13.82;;;3.40;;
66581;SDS011;53438;48.898;2.308;2023-05-24T05:50:09;11.53;;;3.30;;
66581;SDS011;53438;48.898;2.308;2023-05-24T05:52:34;10.50;;;3.05;;
66581;SDS011;53438;48.898;2.308;2023-05-24T05:55:00;13.63;;;3.23;;
66581;SDS011;53438;48.898;2.308;2023-05-24T05:57:25;13.43;;;3.43;;
66581;SDS011;53438;48.898;2.308;2023-05-24T05:59:51;12.27;;;3.10;;
66581;SDS011;53438;48.898;2.308;2023-05-24T06:02:16;11.40;;;2.90;;
66581;SDS011;53438;48.898;2.308;2023-05-24T06:04:43;12.70;;;2.85;;
66581;SDS011;53438;48.898;2.308;2023-05-24T06:07:09;15.70;;;3.80;;
66581;SDS011;53438;48.898;2.308;2023-05-24T06:09:34;12.83;;;2.77;;
66581;SDS011;53438;48.898;2.308;2023-05-24T06:11:59;10.30;;;3.40;;
66581;SDS011;53438;48.898;2.308;2023-05-24T06:14:25;17.93;;;3.40;;
66581;SDS011;53438;48.898;2.308;2023-05-24T06:16:51;12.77;;;2.88;;
66581;SDS011;53438;48.898;2.308;2023-05-24T06:19:19;12.47;;;3.20;;
66581;SDS011;53438;48.898;2.308;2023-05-24T06:21:45;11.73;;;3.35;;
66581;SDS011;53438;48.898;2.308;2023-05-24T06:24:15;13.73;;;3.78;;
66581;SDS011;53438;48.898;2.308;2023-05-24T06:26:44;12.50;;;3.53;;
66581;SDS011;53438;48.898;2.308;2023-05-24T06:29:11;13.83;;;3.27;;
66581;SDS011;53438;48.898;2.308;2023-05-24T06:31:36;11.13;;;3.05;;
66581;SDS011;53438;48.898;2.308;2023-05-24T06:34:02;15.37;;;3.37;;
66581;SDS011;53438;48.898;2.308;2023-05-24T06:36:27;12.63;;;3.70;;
66581;SDS011;53438;48.898;2.308;2023-05-24T06:38:53;10.25;;;2.95;;
66581;SDS011;53438;48.898;2.308;2023-05-24T06:41:18;8.37;;;3.03;;
66581;SDS011;53438;48.898;2.308;2023-05-24T06:43:43;12.53;;;3.37;;
66581;SDS011;53438;48.898;2.308;2023-05-24T06:46:10;13.48;;;3.58;;
66581;SDS011;53438;48.898;2.308;2023-05-24T06:48:35;10.83;;;3.20;;
66581;SDS011;53438;48.898;2.308;2023-05-24T06:51:00;14.30;;;5.00;;
66581;SDS011;53438;48.898;2.308;2023-05-24T06:53:26;12.53;;;3.00;;
66581;SDS011;53438;48.898;2.308;2023-05-24T06:55:51;10.80;;;3.13;;
66581;SDS011;53438;48.898;2.308;2023-05-24T06:58:16;18.47;;;3.53;;
66581;SDS011;53438;48.898;2.308;2023-05-24T07:00:42;15.53;;;4.30;;
66581;SDS011;53438;48.898;2.308;2023-05-24T07:03:09;13.00;;;2.90;;
66581;SDS011;53438;48.898;2.308;2023-05-24T07:05:35;11.77;;;3.63;;
66581;SDS011;53438;48.898;2.308;2023-05-24T07:08:01;14.17;;;3.20;;
66581;SDS011;53438;48.898;2.308;2023-05-24T07:10:26;15.90;;;3.50;;
66581;SDS011;53438;48.898;2.308;2023-05-24T07:12:51;13.87;;;3.13;;
66581;SDS011;53438;48.898;2.308;2023-05-24T07:15:17;16.35;;;3.17;;
66581;SDS011;53438;48.898;2.308;2023-05-24T07:17:42;15.07;;;3.10;;
66581;SDS011;53438;48.898;2.308;2023-05-24T07:20:09;9.67;;;3.17;;
66581;SDS011;53438;48.898;2.308;2023-05-24T07:22:35;11.70;;;3.25;;
66581;SDS011;53438;48.898;2.308;2023-05-24T07:25:00;8.43;;;2.60;;
66581;SDS011;53438;48.898;2.308;2023-05-24T07:27:26;14.32;;;3.97;;
66581;SDS011;53438;48.898;2.308;2023-05-24T07:29:52;12.33;;;3.23;;
66581;SDS011;53438;48.898;2.308;2023-05-24T07:32:18;12.68;;;3.13;;
66581;SDS011;53438;48.898;2.308;2023-05-24T07:34:43;14.75;;;3.30;;
66581;SDS011;53438;48.898;2.308;2023-05-24T07:37:08;9.83;;;2.30;;
66581;SDS011;53438;48.898;2.308;2023-05-24T07:39:34;13.43;;;2.83;;
66581;SDS011;53438;48.898;2.308;2023-05-24T07:41:59;10.83;;;2.77;;
66581;SDS011;53438;48.898;2.308;2023-05-24T07:44:25;9.48;;;3.53;;
66581;SDS011;53438;48.898;2.308;2023-05-24T07:46:50;8.93;;;2.65;;
66581;SDS011;53438;48.898;2.308;2023-05-24T07:49:16;10.10;;;3.10;;
66581;SDS011;53438;48.898;2.308;2023-05-24T07:51:41;10.40;;;2.97;;
66581;SDS011;53438;48.898;2.308;2023-05-24T07:54:07;16.42;;;3.10;;
66581;SDS011;53438;48.898;2.308;2023-05-24T07:56:33;13.73;;;3.07;;
66581;SDS011;53438;48.898;2.308;2023-05-24T07:58:58;10.13;;;2.77;;
66581;SDS011;53438;48.898;2.308;2023-05-24T08:01:29;8.52;;;2.45;;
66581;SDS011;53438;48.898;2.308;2023-05-24T08:03:56;14.77;;;3.10;;
66581;SDS011;53438;48.898;2.308;2023-05-24T08:06:22;10.30;;;2.20;;
66581;SDS011;53438;48.898;2.308;2023-05-24T08:08:48;10.60;;;2.60;;
66581;SDS011;53438;48.898;2.308;2023-05-24T08:11:13;12.60;;;2.65;;
66581;SDS011;53438;48.898;2.308;2023-05-24T08:13:39;11.13;;;2.43;;
66581;SDS011;53438;48.898;2.308;2023-05-24T08:16:04;11.27;;;2.33;;
66581;SDS011;53438;48.898;2.308;2023-05-24T08:18:30;13.00;;;2.50;;
66581;SDS011;53438;48.898;2.308;2023-05-24T08:20:55;11.90;;;2.57;;
66581;SDS011;53438;48.898;2.308;2023-05-24T08:23:21;8.00;;;2.27;;
66581;SDS011;53438;48.898;2.308;2023-05-24T08:25:46;12.37;;;2.37;;
66581;SDS011;53438;48.898;2.308;2023-05-24T08:28:12;12.77;;;2.10;;
66581;SDS011;53438;48.898;2.308;2023-05-24T08:30:37;12.33;;;2.10;;
66581;SDS011;53438;48.898;2.308;2023-05-24T08:33:03;10.83;;;2.27;;
66581;SDS011;53438;48.898;2.308;2023-05-24T08:35:28;11.10;;;1.97;;
66581;SDS011;53438;48.898;2.308;2023-05-24T08:37:54;10.65;;;2.28;;
66581;SDS011;53438;48.898;2.308;2023-05-24T08:40:19;12.63;;;2.10;;
66581;SDS011;53438;48.898;2.308;2023-05-24T08:42:44;9.60;;;1.77;;
66581;SDS011;53438;48.898;2.308;2023-05-24T08:45:11;9.63;;;2.27;;
66581;SDS011;53438;48.898;2.308;2023-05-24T08:47:37;7.70;;;2.20;;
66581;SDS011;53438;48.898;2.308;2023-05-24T08:50:03;9.18;;;1.67;;
66581;SDS011;53438;48.898;2.308;2023-05-24T08:52:30;9.00;;;2.38;;
66581;SDS011;53438;48.898;2.308;2023-05-24T08:54:57;13.00;;;3.05;;
66581;SDS011;53438;48.898;2.308;2023-05-24T08:57:23;14.57;;;2.40;;
66581;SDS011;53438;48.898;2.308;2023-05-24T08:59:51;7.95;;;1.73;;
66581;SDS011;53438;48.898;2.308;2023-05-24T09:02:19;7.88;;;1.80;;
66581;SDS011;53438;48.898;2.308;2023-05-24T09:04:45;12.37;;;2.90;;
66581;SDS011;53438;48.898;2.308;2023-05-24T09:07:16;9.32;;;1.83;;
66581;SDS011;53438;48.898;2.308;2023-05-24T09:09:47;10.93;;;2.22;;
66581;SDS011;53438;48.898;2.308;2023-05-24T09:12:17;7.75;;;2.05;;
66581;SDS011;53438;48.898;2.308;2023-05-24T09:14:45;11.27;;;2.05;;
66581;SDS011;53438;48.898;2.308;2023-05-24T09:17:11;9.40;;;1.73;;
66581;SDS011;53438;48.898;2.308;2023-05-24T09:19:42;6.65;;;1.67;;
66581;SDS011;53438;48.898;2.308;2023-05-24T09:22:08;7.43;;;1.50;;
66581;SDS011;53438;48.898;2.308;2023-05-24T09:24:40;6.70;;;1.73;;
66581;SDS011;53438;48.898;2.308;2023-05-24T09:27:06;12.98;;;2.13;;
66581;SDS011;53438;48.898;2.308;2023-05-24T09:29:35;7.73;;;1.83;;
66581;SDS011;53438;48.898;2.308;2023-05-24T09:32:02;6.97;;;1.88;;
66581;SDS011;53438;48.898;2.308;2023-05-24T09:34:28;7.47;;;1.50;;
66581;SDS011;53438;48.898;2.308;2023-05-24T09:37:02;8.70;;;1.65;;
66581;SDS011;53438;48.898;2.308;2023-05-24T09:39:27;4.37;;;1.40;;
66581;SDS011;53438;48.898;2.308;2023-05-24T09:41:53;6.73;;;1.60;;
66581;SDS011;53438;48.898;2.308;2023-05-24T09:44:25;5.28;;;1.38;;
66581;SDS011;53438;48.898;2.308;2023-05-24T09:46:52;8.93;;;2.08;;
66581;SDS011;53438;48.898;2.308;2023-05-24T09:49:19;7.10;;;1.63;;
66581;SDS011;53438;48.898;2.308;2023-05-24T09:51:45;6.38;;;1.75;;
66581;SDS011;53438;48.898;2.308;2023-05-24T09:54:11;5.78;;;1.88;;
66581;SDS011;53438;48.898;2.308;2023-05-24T09:56:36;6.40;;;1.50;;
66581;SDS011;53438;48.898;2.308;2023-05-24T09:59:06;8.05;;;1.80;;
66581;SDS011;53438;48.898;2.308;2023-05-24T10:01:34;8.88;;;2.10;;
66581;SDS011;53438;48.898;2.308;2023-05-24T10:04:00;4.28;;;1.40;;
66581;SDS011;53438;48.898;2.308;2023-05-24T10:06:27;6.17;;;1.63;;
66581;SDS011;53438;48.898;2.308;2023-05-24T10:08:53;3.15;;;1.20;;
66581;SDS011;53438;48.898;2.308;2023-05-24T10:11:19;6.28;;;1.42;;
66581;SDS011;53438;48.898;2.308;2023-05-24T10:13:46;4.43;;;1.17;;
66581;SDS011;53438;48.898;2.308;2023-05-24T10:16:12;8.57;;;1.98;;
66581;SDS011;53438;48.898;2.308;2023-05-24T10:18:37;6.33;;;2.03;;
66581;SDS011;53438;48.898;2.308;2023-05-24T10:21:04;6.18;;;1.30;;
66581;SDS011;53438;48.898;2.308;2023-05-24T10:23:35;5.25;;;2.15;;
66581;SDS011;53438;48.898;2.308;2023-05-24T10:28:35;4.47;;;1.75;;
66581;SDS011;53438;48.898;2.308;2023-05-24T10:31:08;5.32;;;1.45;;
66581;SDS011;53438;48.898;2.308;2023-05-24T10:33:36;4.82;;;1.50;;
66581;SDS011;53438;48.898;2.308;2023-05-24T10:36:02;4.30;;;1.70;;
66581;SDS011;53438;48.898;2.308;2023-05-24T10:38:32;9.20;;;4.10;;
66581;SDS011;53438;48.898;2.308;2023-05-24T10:40:58;4.22;;;1.50;;
66581;SDS011;53438;48.898;2.308;2023-05-24T10:43:23;3.03;;;1.42;;
66581;SDS011;53438;48.898;2.308;2023-05-24T10:45:50;8.07;;;2.00;;
66581;SDS011;53438;48.898;2.308;2023-05-24T10:50:41;4.65;;;1.33;;
66581;SDS011;53438;48.898;2.308;2023-05-24T10:53:16;4.70;;;1.70;;
66581;SDS011;53438;48.898;2.308;2023-05-24T10:56:02;4.00;;;1.83;;
66581;SDS011;53438;48.898;2.308;2023-05-24T11:01:01;5.20;;;1.70;;
66581;SDS011;53438;48.898;2.308;2023-05-24T11:03:34;6.00;;;1.67;;
66581;SDS011;53438;48.898;2.308;2023-05-24T11:05:59;5.87;;;1.90;;
66581;SDS011;53438;48.898;2.308;2023-05-24T11:08:28;5.82;;;1.02;;
66581;SDS011;53438;48.898;2.308;2023-05-24T11:13:37;6.00;;;1.40;;
66581;SDS011;53438;48.898;2.308;2023-05-24T11:16:03;9.43;;;3.78;;
66581;SDS011;53438;48.898;2.308;2023-05-24T11:18:29;10.55;;;4.13;;
66581;SDS011;53438;48.898;2.308;2023-05-24T11:20:56;3.13;;;1.40;;
66581;SDS011;53438;48.898;2.308;2023-05-24T11:23:25;4.70;;;1.33;;
66581;SDS011;53438;48.898;2.308;2023-05-24T11:25:50;4.33;;;1.10;;
66581;SDS011;53438;48.898;2.308;2023-05-24T11:28:16;4.23;;;1.30;;
66581;SDS011;53438;48.898;2.308;2023-05-24T11:30:42;3.97;;;1.45;;
66581;SDS011;53438;48.898;2.308;2023-05-24T11:35:46;5.70;;;1.60;;
66581;SDS011;53438;48.898;2.308;2023-05-24T11:38:16;8.18;;;2.30;;
66581;SDS011;53438;48.898;2.308;2023-05-24T11:40:43;4.82;;;1.60;;
66581;SDS011;53438;48.898;2.308;2023-05-24T11:43:15;7.70;;;1.80;;
66581;SDS011;53438;48.898;2.308;2023-05-24T11:45:42;5.90;;;1.83;;
66581;SDS011;53438;48.898;2.308;2023-05-24T11:48:09;8.17;;;1.73;;
66581;SDS011;53438;48.898;2.308;2023-05-24T11:50:38;6.47;;;1.80;;
66581;SDS011;53438;48.898;2.308;2023-05-24T11:53:14;8.40;;;1.65;;
66581;SDS011;53438;48.898;2.308;2023-05-24T11:55:42;3.55;;;1.25;;
66581;SDS011;53438;48.898;2.308;2023-05-24T11:58:31;5.87;;;1.70;;
66581;SDS011;53438;48.898;2.308;2023-05-24T12:01:06;6.00;;;2.00;;
66581;SDS011;53438;48.898;2.308;2023-05-24T12:03:54;6.82;;;1.80;;
66581;SDS011;53438;48.898;2.308;2023-05-24T12:06:20;4.53;;;1.63;;
66581;SDS011;53438;48.898;2.308;2023-05-24T12:08:47;4.90;;;1.60;;
66581;SDS011;53438;48.898;2.308;2023-05-24T12:11:13;8.95;;;1.90;;
66581;SDS011;53438;48.898;2.308;2023-05-24T12:13:40;4.50;;;1.60;;
66581;SDS011;53438;48.898;2.308;2023-05-24T12:16:05;3.58;;;1.48;;
66581;SDS011;53438;48.898;2.308;2023-05-24T12:18:31;4.50;;;1.38;;
66581;SDS011;53438;48.898;2.308;2023-05-24T12:20:57;4.77;;;1.47;;
66581;SDS011;53438;48.898;2.308;2023-05-24T12:23:23;6.60;;;2.13;;
66581;SDS011;53438;48.898;2.308;2023-05-24T12:25:56;5.82;;;1.80;;
66581;SDS011;53438;48.898;2.308;2023-05-24T12:28:25;5.32;;;1.70;;
66581;SDS011;53438;48.898;2.308;2023-05-24T12:30:51;4.33;;;1.43;;
66581;SDS011;53438;48.898;2.308;2023-05-24T12:33:17;5.57;;;2.15;;
66581;SDS011;53438;48.898;2.308;2023-05-24T12:35:43;4.55;;;1.60;;
66581;SDS011;53438;48.898;2.308;2023-05-24T12:38:10;6.65;;;2.60;;
66581;SDS011;53438;48.898;2.308;2023-05-24T12:40:36;4.83;;;2.10;;
66581;SDS011;53438;48.898;2.308;2023-05-24T12:43:02;7.80;;;1.63;;
66581;SDS011;53438;48.898;2.308;2023-05-24T12:45:28;6.35;;;2.13;;
66581;SDS011;53438;48.898;2.308;2023-05-24T12:47:54;6.60;;;1.67;;
66581;SDS011;53438;48.898;2.308;2023-05-24T12:50:21;7.97;;;1.60;;
66581;SDS011;53438;48.898;2.308;2023-05-24T12:52:48;5.80;;;1.98;;
66581;SDS011;53438;48.898;2.308;2023-05-24T12:55:17;6.95;;;2.28;;
66581;SDS011;53438;48.898;2.308;2023-05-24T12:57:42;6.22;;;1.73;;
66581;SDS011;53438;48.898;2.308;2023-05-24T13:00:09;3.80;;;1.58;;
66581;SDS011;53438;48.898;2.308;2023-05-24T13:02:38;8.23;;;2.08;;
66581;SDS011;53438;48.898;2.308;2023-05-24T13:05:05;4.00;;;1.58;;
66581;SDS011;53438;48.898;2.308;2023-05-24T13:07:31;5.40;;;1.87;;
66581;SDS011;53438;48.898;2.308;2023-05-24T13:09:57;5.47;;;2.08;;
66581;SDS011;53438;48.898;2.308;2023-05-24T13:12:24;6.78;;;1.80;;
66581;SDS011;53438;48.898;2.308;2023-05-24T13:14:49;7.37;;;2.23;;
66581;SDS011;53438;48.898;2.308;2023-05-24T13:17:14;5.27;;;1.80;;
66581;SDS011;53438;48.898;2.308;2023-05-24T13:19:41;7.20;;;2.65;;
66581;SDS011;53438;48.898;2.308;2023-05-24T13:22:07;8.27;;;2.00;;
66581;SDS011;53438;48.898;2.308;2023-05-24T13:24:33;10.03;;;2.17;;
66581;SDS011;53438;48.898;2.308;2023-05-24T13:26:58;5.10;;;2.17;;
66581;SDS011;53438;48.898;2.308;2023-05-24T13:29:24;6.13;;;1.63;;
66581;SDS011;53438;48.898;2.308;2023-05-24T13:31:49;3.83;;;1.57;;
66581;SDS011;53438;48.898;2.308;2023-05-24T13:34:14;5.50;;;1.93;;
66581;SDS011;53438;48.898;2.308;2023-05-24T13:36:43;4.07;;;2.15;;
66581;SDS011;53438;48.898;2.308;2023-05-24T13:39:09;5.43;;;2.27;;
66581;SDS011;53438;48.898;2.308;2023-05-24T13:41:35;7.60;;;2.25;;
66581;SDS011;53438;48.898;2.308;2023-05-24T13:44:02;4.67;;;1.67;;
66581;SDS011;53438;48.898;2.308;2023-05-24T13:46:27;10.23;;;2.25;;
66581;SDS011;53438;48.898;2.308;2023-05-24T13:48:56;7.10;;;1.80;;
66581;SDS011;53438;48.898;2.308;2023-05-24T13:51:22;5.30;;;2.05;;
66581;SDS011;53438;48.898;2.308;2023-05-24T13:53:48;7.65;;;2.35;;
66581;SDS011;53438;48.898;2.308;2023-05-24T13:56:14;4.85;;;2.13;;
66581;SDS011;53438;48.898;2.308;2023-05-24T13:58:40;4.88;;;1.92;;
66581;SDS011;53438;48.898;2.308;2023-05-24T14:01:07;4.85;;;2.40;;
66581;SDS011;53438;48.898;2.308;2023-05-24T14:03:33;5.47;;;2.10;;
66581;SDS011;53438;48.898;2.308;2023-05-24T14:05:58;8.00;;;2.17;;
66581;SDS011;53438;48.898;2.308;2023-05-24T14:08:24;5.50;;;2.23;;
66581;SDS011;53438;48.898;2.308;2023-05-24T14:10:49;5.72;;;1.50;;
66581;SDS011;53438;48.898;2.308;2023-05-24T14:13:15;4.00;;;2.28;;
66581;SDS011;53438;48.898;2.308;2023-05-24T14:15:41;7.70;;;2.30;;
66581;SDS011;53438;48.898;2.308;2023-05-24T14:18:08;4.63;;;2.00;;
66581;SDS011;53438;48.898;2.308;2023-05-24T14:20:33;7.97;;;2.10;;
66581;SDS011;53438;48.898;2.308;2023-05-24T14:23:01;6.32;;;1.67;;
66581;SDS011;53438;48.898;2.308;2023-05-24T14:25:30;4.73;;;2.00;;
66581;SDS011;53438;48.898;2.308;2023-05-24T14:27:57;5.18;;;2.00;;
66581;SDS011;53438;48.898;2.308;2023-05-24T14:30:23;3.83;;;2.00;;
66581;SDS011;53438;48.898;2.308;2023-05-24T14:32:49;4.47;;;2.00;;
66581;SDS011;53438;48.898;2.308;2023-05-24T14:35:14;7.50;;;2.37;;
66581;SDS011;53438;48.898;2.308;2023-05-24T14:37:39;4.43;;;1.83;;
66581;SDS011;53438;48.898;2.308;2023-05-24T14:40:05;12.00;;;3.00;;
66581;SDS011;53438;48.898;2.308;2023-05-24T14:42:31;10.80;;;2.50;;
66581;SDS011;53438;48.898;2.308;2023-05-24T14:44:56;7.43;;;2.13;;
66581;SDS011;53438;48.898;2.308;2023-05-24T14:47:22;6.60;;;2.90;;
66581;SDS011;53438;48.898;2.308;2023-05-24T14:49:47;5.90;;;1.97;;
66581;SDS011;53438;48.898;2.308;2023-05-24T14:52:13;6.53;;;2.37;;
66581;SDS011;53438;48.898;2.308;2023-05-24T14:54:38;14.93;;;2.60;;
66581;SDS011;53438;48.898;2.308;2023-05-24T14:57:03;7.88;;;2.30;;
66581;SDS011;53438;48.898;2.308;2023-05-24T14:59:31;5.07;;;2.10;;
66581;SDS011;53438;48.898;2.308;2023-05-24T15:01:56;7.07;;;2.00;;
66581;SDS011;53438;48.898;2.308;2023-05-24T15:04:21;4.13;;;1.83;;
66581;SDS011;53438;48.898;2.308;2023-05-24T15:06:47;7.03;;;2.58;;
66581;SDS011;53438;48.898;2.308;2023-05-24T15:09:12;6.30;;;2.17;;
66581;SDS011;53438;48.898;2.308;2023-05-24T15:11:37;6.63;;;2.13;;
66581;SDS011;53438;48.898;2.308;2023-05-24T15:14:03;8.13;;;2.53;;
66581;SDS011;53438;48.898;2.308;2023-05-24T15:16:28;5.90;;;3.00;;
66581;SDS011;53438;48.898;2.308;2023-05-24T15:18:53;6.87;;;3.00;;
66581;SDS011;53438;48.898;2.308;2023-05-24T15:21:19;9.77;;;2.63;;
66581;SDS011;53438;48.898;2.308;2023-05-24T15:23:45;6.82;;;2.05;;
66581;SDS011;53438;48.898;2.308;2023-05-24T15:26:11;6.47;;;2.28;;
66581;SDS011;53438;48.898;2.308;2023-05-24T15:28:36;7.67;;;2.33;;
66581;SDS011;53438;48.898;2.308;2023-05-24T15:31:02;6.90;;;2.50;;
66581;SDS011;53438;48.898;2.308;2023-05-24T15:33:27;5.60;;;2.55;;
66581;SDS011;53438;48.898;2.308;2023-05-24T15:35:53;5.90;;;2.60;;
66581;SDS011;53438;48.898;2.308;2023-05-24T15:38:19;6.43;;;2.65;;
66581;SDS011;53438;48.898;2.308;2023-05-24T15:40:44;6.43;;;2.27;;
66581;SDS011;53438;48.898;2.308;2023-05-24T15:43:10;6.47;;;2.60;;
66581;SDS011;53438;48.898;2.308;2023-05-24T15:45:36;6.43;;;2.50;;
66581;SDS011;53438;48.898;2.308;2023-05-24T15:48:01;4.35;;;2.38;;
66581;SDS011;53438;48.898;2.308;2023-05-24T15:50:30;3.57;;;2.20;;
66581;SDS011;53438;48.898;2.308;2023-05-24T15:52:56;9.25;;;2.25;;
66581;SDS011;53438;48.898;2.308;2023-05-24T15:55:22;5.38;;;2.72;;
66581;SDS011;53438;48.898;2.308;2023-05-24T15:57:47;5.43;;;2.37;;
66581;SDS011;53438;48.898;2.308;2023-05-24T16:00:12;12.93;;;3.43;;
66581;SDS011;53438;48.898;2.308;2023-05-24T16:02:38;6.80;;;2.65;;
66581;SDS011;53438;48.898;2.308;2023-05-24T16:05:04;6.72;;;2.55;;
66581;SDS011;53438;48.898;2.308;2023-05-24T16:07:30;6.60;;;2.90;;
66581;SDS011;53438;48.898;2.308;2023-05-24T16:09:55;9.38;;;2.33;;
66581;SDS011;53438;48.898;2.308;2023-05-24T16:12:21;10.07;;;3.10;;
66581;SDS011;53438;48.898;2.308;2023-05-24T16:14:48;7.35;;;2.55;;
66581;SDS011;53438;48.898;2.308;2023-05-24T16:17:13;10.20;;;2.70;;
66581;SDS011;53438;48.898;2.308;2023-05-24T16:19:40;9.00;;;2.78;;
66581;SDS011;53438;48.898;2.308;2023-05-24T16:22:07;5.35;;;2.70;;
66581;SDS011;53438;48.898;2.308;2023-05-24T16:24:32;7.57;;;2.50;;
66581;SDS011;53438;48.898;2.308;2023-05-24T16:26:58;6.30;;;2.60;;
66581;SDS011;53438;48.898;2.308;2023-05-24T16:29:23;5.07;;;2.20;;
66581;SDS011;53438;48.898;2.308;2023-05-24T16:31:49;6.13;;;2.83;;
66581;SDS011;53438;48.898;2.308;2023-05-24T16:34:14;5.87;;;2.40;;
66581;SDS011;53438;48.898;2.308;2023-05-24T16:36:40;6.45;;;2.55;;
66581;SDS011;53438;48.898;2.308;2023-05-24T16:39:06;9.23;;;2.93;;
66581;SDS011;53438;48.898;2.308;2023-05-24T16:41:31;8.43;;;2.80;;
66581;SDS011;53438;48.898;2.308;2023-05-24T16:44:01;6.90;;;2.60;;
66581;SDS011;53438;48.898;2.308;2023-05-24T16:46:28;7.88;;;2.70;;
66581;SDS011;53438;48.898;2.308;2023-05-24T16:48:53;6.37;;;2.60;;
66581;SDS011;53438;48.898;2.308;2023-05-24T16:51:19;6.60;;;2.37;;
66581;SDS011;53438;48.898;2.308;2023-05-24T16:53:44;6.70;;;2.70;;
66581;SDS011;53438;48.898;2.308;2023-05-24T16:56:09;6.10;;;3.30;;
66581;SDS011;53438;48.898;2.308;2023-05-24T16:58:35;5.85;;;2.53;;
66581;SDS011;53438;48.898;2.308;2023-05-24T17:01:01;5.33;;;2.23;;
66581;SDS011;53438;48.898;2.308;2023-05-24T17:03:27;8.98;;;2.88;;
66581;SDS011;53438;48.898;2.308;2023-05-24T17:05:53;7.75;;;2.72;;
66581;SDS011;53438;48.898;2.308;2023-05-24T17:08:20;7.43;;;2.90;;
66581;SDS011;53438;48.898;2.308;2023-05-24T17:10:46;6.95;;;2.40;;
66581;SDS011;53438;48.898;2.308;2023-05-24T17:13:13;5.32;;;2.67;;
66581;SDS011;53438;48.898;2.308;2023-05-24T17:15:38;10.10;;;3.07;;
66581;SDS011;53438;48.898;2.308;2023-05-24T17:18:04;10.60;;;3.20;;
66581;SDS011;53438;48.898;2.308;2023-05-24T17:20:29;8.52;;;3.42;;
66581;SDS011;53438;48.898;2.308;2023-05-24T17:22:55;8.97;;;2.63;;
66581;SDS011;53438;48.898;2.308;2023-05-24T17:25:20;6.47;;;2.80;;
66581;SDS011;53438;48.898;2.308;2023-05-24T17:27:46;6.83;;;3.10;;
66581;SDS011;53438;48.898;2.308;2023-05-24T17:30:11;8.87;;;2.83;;
66581;SDS011;53438;48.898;2.308;2023-05-24T17:32:36;7.22;;;2.67;;
66581;SDS011;53438;48.898;2.308;2023-05-24T17:35:02;8.63;;;2.53;;
66581;SDS011;53438;48.898;2.308;2023-05-24T17:37:27;7.67;;;2.93;;
66581;SDS011;53438;48.898;2.308;2023-05-24T17:39:53;7.70;;;2.43;;
66581;SDS011;53438;48.898;2.308;2023-05-24T17:42:18;9.30;;;2.90;;
66581;SDS011;53438;48.898;2.308;2023-05-24T17:44:43;8.50;;;2.92;;
66581;SDS011;53438;48.898;2.308;2023-05-24T17:47:09;11.43;;;3.53;;
66581;SDS011;53438;48.898;2.308;2023-05-24T17:49:34;9.37;;;3.93;;